Terminal Aerodrome Forecast
Issued by NWS Wilmington, NC

Home | Current Version | Previous Version | Text Only | Print | Product List | Glossary On
Versions: 1 2 3 4 5 6 7 8 9 10 11 12 13 14
907
FTUS42 KILM 252347
TAFILM
TAF
KILM 252347Z 2600/2624 26003KT P6SM SKC
     FM260300 00000KT P6SM SCT250
     FM260800 08004KT P6SM SCT250=

USA.gov is the U.S. government's official web portal to all federal, state and local government web resources and services.